Time;durP1;ratioP1;P1;durP2;ratioP2;P2;SDS_P1;SDS_P2;PMS_P1;PMS_P2;Temp;Humidity;BMP_temperature;BMP_pressure;BME280_temperature;BME280_humidity;BME280_pressure;Samples;Min_cycle;Max_cycle;Signal;HPM_P1;HPM_P2
2023/06/10 00:01:41;;;;;;;0.60;0.60;;;18.30;99.90;;;;;;4418010;32;20184;-79
2023/06/10 00:04:06;;;;;;;0.77;0.77;;;18.30;99.90;;;;;;4421062;32;20092;-79
2023/06/10 00:06:35;;;;;;;0.35;0.35;;;18.40;99.90;;;;;;4419526;32;20073;-78
2023/06/10 00:09:04;;;;;;;0.50;0.47;;;18.30;99.90;;;;;;4419658;32;20090;-79
2023/06/10 00:11:30;;;;;;;0.60;0.60;;;18.30;99.90;;;;;;4418716;32;20454;-80
2023/06/10 00:13:55;;;;;;;6.18;1.00;;;18.30;99.90;;;;;;4419872;32;20086;-78
2023/06/10 00:16:21;;;;;;;0.50;0.50;;;18.30;99.90;;;;;;4420685;32;20069;-77
2023/06/10 00:18:47;;;;;;;1.45;0.62;;;18.30;99.90;;;;;;4419836;32;20073;-79
2023/06/10 00:21:13;;;;;;;0.85;0.43;;;18.10;99.90;;;;;;4420896;32;20081;-80
2023/06/10 00:23:38;;;;;;;0.28;0.28;;;18.10;99.90;;;;;;4421337;32;20113;-78
2023/06/10 00:26:04;;;;;;;1.67;0.93;;;18.00;99.90;;;;;;4421193;32;20190;-79
2023/06/10 00:28:30;;;;;;;0.30;0.30;;;18.10;99.90;;;;;;4422264;32;20065;-77
2023/06/10 00:30:57;;;;;;;0.60;0.60;;;18.00;99.90;;;;;;4420866;32;20090;-76
2023/06/10 00:33:22;;;;;;;14.18;0.40;;;18.00;99.90;;;;;;4420103;32;20153;-79
2023/06/10 00:35:48;;;;;;;0.80;0.50;;;18.10;99.90;;;;;;4419252;32;20132;-77
2023/06/10 00:38:14;;;;;;;0.20;0.20;;;18.10;99.90;;;;;;4418758;32;20069;-80
2023/06/10 00:40:40;;;;;;;0.52;0.52;;;18.10;99.90;;;;;;4420503;32;20102;-81
2023/06/10 00:43:07;;;;;;;2.10;1.40;;;18.00;99.90;;;;;;4420662;32;20086;-77
2023/06/10 00:45:32;;;;;;;0.30;0.30;;;17.90;99.90;;;;;;4421992;32;20080;-80
2023/06/10 00:47:59;;;;;;;2.05;1.40;;;17.80;99.90;;;;;;4422294;32;20549;-78
2023/06/10 00:50:25;;;;;;;0.40;0.40;;;17.80;99.90;;;;;;4422979;32;20155;-78
2023/06/10 00:52:51;;;;;;;0.65;0.65;;;17.80;99.90;;;;;;4425684;32;20082;-79
2023/06/10 00:55:17;;;;;;;0.62;0.40;;;17.90;99.90;;;;;;4420563;32;20119;-78
2023/06/10 00:57:44;;;;;;;0.32;0.32;;;17.90;99.90;;;;;;4421735;32;20069;-78
2023/06/10 01:00:11;;;;;;;0.47;0.47;;;18.00;99.90;;;;;;4420359;32;20102;-79
2023/06/10 01:02:36;;;;;;;1.65;0.95;;;17.90;99.90;;;;;;4419938;32;20081;-81
2023/06/10 01:05:02;;;;;;;0.40;0.40;;;17.80;99.90;;;;;;4419912;32;20142;-78
2023/06/10 01:07:39;;;;;;;0.40;0.40;;;17.80;99.90;;;;;;4419545;32;20739;-78
2023/06/10 01:10:11;;;;;;;0.52;0.47;;;17.90;99.90;;;;;;4419518;32;20579;-76
2023/06/10 01:12:48;;;;;;;0.57;0.57;;;18.00;99.90;;;;;;4419976;32;20113;-76
2023/06/10 01:15:15;;;;;;;1.35;0.82;;;17.90;99.90;;;;;;4416099;32;20587;-79
2023/06/10 01:17:58;;;;;;;0.30;0.30;;;17.90;99.90;;;;;;4421010;32;20085;-80
2023/06/10 01:20:26;;;;;;;0.37;0.37;;;17.80;99.90;;;;;;4418594;32;20466;-81
2023/06/10 01:22:54;;;;;;;0.30;0.30;;;17.80;99.90;;;;;;4421616;32;20137;-80
2023/06/10 01:25:20;;;;;;;0.90;0.55;;;17.70;99.90;;;;;;4419122;32;20093;-81
2023/06/10 01:27:48;;;;;;;1.35;0.90;;;17.50;99.90;;;;;;4420016;32;20086;-80
2023/06/10 01:30:18;;;;;;;2.40;1.12;;;17.60;99.90;;;;;;4418568;32;20069;-81
2023/06/10 01:32:48;;;;;;;3.20;0.75;;;17.50;99.90;;;;;;4419600;32;20132;-79
2023/06/10 01:35:14;;;;;;;0.73;0.70;;;17.50;99.90;;;;;;4424738;32;20785;-81
2023/06/10 01:37:42;;;;;;;0.60;0.52;;;17.60;99.90;;;;;;4421580;32;20089;-81
2023/06/10 01:40:09;;;;;;;0.25;0.25;;;17.60;99.90;;;;;;4420196;32;20122;-79
2023/06/10 01:42:35;;;;;;;2.05;0.45;;;17.50;99.90;;;;;;4423969;32;20078;-77
2023/06/10 01:45:01;;;;;;;0.50;0.50;;;17.50;99.90;;;;;;4423045;32;20221;-79
2023/06/10 01:47:26;;;;;;;0.47;0.47;;;17.40;99.90;;;;;;4423439;32;20201;-80
2023/06/10 01:49:52;;;;;;;0.47;0.45;;;17.40;99.90;;;;;;4423756;32;20089;-79
2023/06/10 01:52:18;;;;;;;0.73;0.73;;;17.40;99.90;;;;;;4424571;32;20065;-80
2023/06/10 01:54:43;;;;;;;4.25;0.60;;;17.40;99.90;;;;;;4425038;32;20117;-79
2023/06/10 01:57:09;;;;;;;0.35;0.30;;;17.40;99.90;;;;;;4419649;32;20089;-81
2023/06/10 01:59:36;;;;;;;0.60;0.60;;;17.30;99.90;;;;;;4420682;32;20321;-80
2023/06/10 02:02:01;;;;;;;0.50;0.50;;;17.30;99.90;;;;;;4418146;32;20065;-80
2023/06/10 02:04:27;;;;;;;0.40;0.40;;;17.30;99.90;;;;;;4422099;32;20438;-80
2023/06/10 02:06:53;;;;;;;0.57;0.57;;;17.30;99.90;;;;;;4419254;32;20093;-80
2023/06/10 02:09:18;;;;;;;1.30;0.57;;;17.30;99.90;;;;;;4421559;32;20065;-79
2023/06/10 02:11:44;;;;;;;0.52;0.50;;;17.30;99.90;;;;;;4419881;32;20128;-81
2023/06/10 02:14:09;;;;;;;0.50;0.50;;;17.40;99.90;;;;;;4420663;32;20065;-81
2023/06/10 02:16:35;;;;;;;0.30;0.30;;;17.30;99.90;;;;;;4418352;32;20509;-78
2023/06/10 02:19:00;;;;;;;1.08;0.88;;;17.30;99.90;;;;;;4421570;32;21390;-80
2023/06/10 02:21:26;;;;;;;0.50;0.50;;;17.40;99.90;;;;;;4422576;32;20062;-81
2023/06/10 02:23:51;;;;;;;1.20;1.08;;;17.30;99.90;;;;;;4420993;32;20166;-81
2023/06/10 02:26:17;;;;;;;1.48;0.68;;;17.30;99.90;;;;;;4419945;32;20065;-82
2023/06/10 02:28:43;;;;;;;0.37;0.37;;;17.20;99.90;;;;;;4423473;32;20077;-81
2023/06/10 02:31:08;;;;;;;1.80;0.98;;;17.10;99.90;;;;;;4421566;32;20077;-80
2023/06/10 02:33:34;;;;;;;0.45;0.45;;;16.90;99.90;;;;;;4423565;32;20093;-81
2023/06/10 02:35:59;;;;;;;1.12;0.40;;;16.90;99.90;;;;;;4421311;32;20101;-80
2023/06/10 02:38:25;;;;;;;0.40;0.40;;;16.80;99.90;;;;;;4420737;32;21255;-80
2023/06/10 02:40:50;;;;;;;0.40;0.40;;;16.80;99.90;;;;;;4421864;32;20114;-79
2023/06/10 02:43:16;;;;;;;1.08;0.43;;;16.90;99.90;;;;;;4423517;32;20089;-78
2023/06/10 02:45:41;;;;;;;8.40;0.57;;;17.10;99.90;;;;;;4424072;32;20127;-79
2023/06/10 02:48:07;;;;;;;1.23;0.65;;;17.10;99.90;;;;;;4420531;32;20082;-81
2023/06/10 02:50:32;;;;;;;0.80;0.77;;;17.20;99.90;;;;;;4420340;32;20140;-81
2023/06/10 02:52:58;;;;;;;0.35;0.35;;;17.20;99.90;;;;;;4423087;32;20082;-80
2023/06/10 02:55:26;;;;;;;0.47;0.47;;;17.20;99.90;;;;;;4421697;32;20509;-81
2023/06/10 02:57:52;;;;;;;7.90;0.50;;;17.10;99.90;;;;;;4419550;32;20073;-82
2023/06/10 03:00:20;;;;;;;0.40;0.40;;;17.10;99.90;;;;;;4421473;32;20069;-81
2023/06/10 03:02:45;;;;;;;0.40;0.40;;;17.10;99.90;;;;;;4422760;32;20069;-78
2023/06/10 03:05:12;;;;;;;1.75;0.65;;;17.10;99.90;;;;;;4422115;32;20094;-80
2023/06/10 03:07:38;;;;;;;0.62;0.60;;;17.20;99.90;;;;;;4421789;32;20158;-79
2023/06/10 03:10:05;;;;;;;1.77;0.82;;;17.00;99.90;;;;;;4420804;32;20172;-78
2023/06/10 03:12:31;;;;;;;2.12;0.70;;;17.00;99.90;;;;;;4422616;32;20140;-78
2023/06/10 03:14:56;;;;;;;2.95;0.73;;;17.00;99.90;;;;;;4423588;32;20129;-79
2023/06/10 03:17:22;;;;;;;0.52;0.52;;;17.00;99.90;;;;;;4422840;32;20087;-79
2023/06/10 03:19:47;;;;;;;0.30;0.30;;;17.00;99.90;;;;;;4421545;32;20066;-78
2023/06/10 03:22:14;;;;;;;0.50;0.50;;;17.10;99.90;;;;;;4421563;32;20145;-79
2023/06/10 03:24:40;;;;;;;0.20;0.20;;;17.10;99.90;;;;;;4420897;32;20078;-81
2023/06/10 03:27:07;;;;;;;1.20;0.93;;;17.20;99.90;;;;;;4419386;32;20082;-79
2023/06/10 03:29:33;;;;;;;2.60;1.25;;;17.10;99.90;;;;;;4422835;32;20061;-81
2023/06/10 03:31:58;;;;;;;4.68;0.90;;;17.10;99.90;;;;;;4421184;32;20139;-79
2023/06/10 03:34:24;;;;;;;2.20;1.58;;;17.20;99.90;;;;;;4421450;32;20126;-81
2023/06/10 03:36:50;;;;;;;1.75;0.50;;;17.20;99.90;;;;;;4418272;32;20569;-79
2023/06/10 03:39:16;;;;;;;2.28;1.58;;;16.90;99.90;;;;;;4420950;32;20084;-79
2023/06/10 03:41:41;;;;;;;0.40;0.40;;;16.80;99.90;;;;;;4420084;32;20077;-81
2023/06/10 03:44:07;;;;;;;0.75;0.40;;;16.70;99.90;;;;;;4420779;32;20064;-78
2023/06/10 03:46:32;;;;;;;1.45;0.60;;;16.80;99.90;;;;;;4421123;32;20486;-79
2023/06/10 03:49:00;;;;;;;0.35;0.35;;;16.90;99.90;;;;;;4423926;32;20571;-79
2023/06/10 03:51:26;;;;;;;0.30;0.30;;;17.00;99.90;;;;;;4419433;32;20093;-80
2023/06/10 03:53:51;;;;;;;3.10;0.47;;;17.00;99.90;;;;;;4420005;32;20080;-80
2023/06/10 03:56:17;;;;;;;0.62;0.62;;;17.00;99.90;;;;;;4423284;32;20118;-79
2023/06/10 03:58:42;;;;;;;0.37;0.37;;;16.90;99.90;;;;;;4424116;32;20062;-80
2023/06/10 04:01:08;;;;;;;0.52;0.52;;;16.90;99.90;;;;;;4427495;32;20085;-79
2023/06/10 04:03:33;;;;;;;6.72;1.15;;;17.00;99.90;;;;;;4427477;32;20183;-80
2023/06/10 04:05:59;;;;;;;1.12;0.73;;;17.00;99.90;;;;;;4426888;32;20097;-80
2023/06/10 04:08:24;;;;;;;0.90;0.90;;;17.00;99.90;;;;;;4425809;32;20077;-78
2023/06/10 04:10:50;;;;;;;0.30;0.30;;;17.10;99.90;;;;;;4424510;32;20086;-79
2023/06/10 04:13:16;;;;;;;0.75;0.62;;;17.10;99.90;;;;;;4424120;32;20539;-80
2023/06/10 04:15:41;;;;;;;2.60;0.60;;;17.00;99.90;;;;;;4424236;32;20132;-79
2023/06/10 04:18:07;;;;;;;0.80;0.50;;;16.90;99.90;;;;;;4424770;32;20093;-79
2023/06/10 04:20:32;;;;;;;2.95;1.25;;;17.00;99.90;;;;;;4425189;32;20085;-80
2023/06/10 04:22:59;;;;;;;8.40;1.70;;;17.10;99.90;;;;;;4424531;32;20517;-79
2023/06/10 04:25:26;;;;;;;0.73;0.73;;;17.20;99.90;;;;;;4424875;32;20086;-78
2023/06/10 04:27:51;;;;;;;0.55;0.55;;;17.20;99.90;;;;;;4423540;32;20065;-80
2023/06/10 04:30:18;;;;;;;0.75;0.75;;;17.20;99.90;;;;;;4426056;32;20093;-80
2023/06/10 04:32:43;;;;;;;2.08;0.40;;;17.20;99.90;;;;;;4422909;32;20092;-81
2023/06/10 04:35:13;;;;;;;2.53;1.23;;;17.20;99.90;;;;;;4426713;32;20100;-81
2023/06/10 04:37:40;;;;;;;0.65;0.57;;;17.30;99.90;;;;;;4423385;32;20089;-80
2023/06/10 04:40:07;;;;;;;0.40;0.40;;;17.30;99.90;;;;;;4423694;32;20510;-79
2023/06/10 04:42:32;;;;;;;0.93;0.45;;;17.30;99.90;;;;;;4425410;32;20069;-80
2023/06/10 04:44:58;;;;;;;2.72;1.75;;;17.50;99.90;;;;;;4426762;32;20089;-80
2023/06/10 04:47:23;;;;;;;0.30;0.30;;;17.50;99.90;;;;;;4426130;32;20073;-79
2023/06/10 04:49:49;;;;;;;6.40;0.50;;;17.60;99.90;;;;;;4423754;32;20081;-79
2023/06/10 04:52:14;;;;;;;0.35;0.35;;;17.50;99.90;;;;;;4425821;32;20114;-80
2023/06/10 04:54:40;;;;;;;0.43;0.43;;;17.60;99.90;;;;;;4421551;32;20101;-79
2023/06/10 04:57:07;;;;;;;4.03;1.00;;;17.70;99.90;;;;;;4424357;32;20065;-75
2023/06/10 04:59:37;;;;;;;4.00;0.50;;;17.70;99.90;;;;;;4423530;32;20123;-79
2023/06/10 05:02:03;;;;;;;1.45;0.80;;;17.60;99.90;;;;;;4423589;32;20062;-79
2023/06/10 05:04:29;;;;;;;0.32;0.32;;;17.60;99.90;;;;;;4419959;32;20564;-77
2023/06/10 05:06:55;;;;;;;0.47;0.47;;;17.50;99.90;;;;;;4419970;32;20132;-80
2023/06/10 05:09:20;;;;;;;3.50;1.05;;;17.50;99.90;;;;;;4419026;32;20494;-79
2023/06/10 05:11:46;;;;;;;1.10;0.85;;;17.50;99.90;;;;;;4420278;32;20085;-80
2023/06/10 05:14:12;;;;;;;0.73;0.73;;;17.50;99.90;;;;;;4414952;32;20578;-81
2023/06/10 05:16:38;;;;;;;0.43;0.43;;;17.40;99.90;;;;;;4420483;32;20057;-78
2023/06/10 05:19:04;;;;;;;0.30;0.30;;;17.40;99.90;;;;;;4421478;32;20123;-80
2023/06/10 05:21:29;;;;;;;2.42;1.55;;;17.40;99.90;;;;;;4426033;32;20490;-78
2023/06/10 05:23:55;;;;;;;0.50;0.50;;;17.40;99.90;;;;;;4423429;32;20088;-79
2023/06/10 05:26:21;;;;;;;0.65;0.57;;;17.50;99.90;;;;;;4424718;32;20736;-79
2023/06/10 05:28:47;;;;;;;1.25;1.15;;;17.50;99.90;;;;;;4421628;32;20101;-78
2023/06/10 05:31:12;;;;;;;3.03;1.25;;;17.50;99.90;;;;;;4421991;32;21261;-79
2023/06/10 05:33:38;;;;;;;0.40;0.40;;;17.50;99.90;;;;;;4422864;32;20073;-76
2023/06/10 05:36:05;;;;;;;2.05;1.23;;;17.50;99.90;;;;;;4425318;32;20101;-78
2023/06/10 05:38:31;;;;;;;0.47;0.47;;;17.60;99.90;;;;;;4424239;32;20734;-79
2023/06/10 05:40:56;;;;;;;0.60;0.60;;;17.60;99.90;;;;;;4423381;32;20062;-78
2023/06/10 05:43:22;;;;;;;1.10;0.65;;;17.70;99.90;;;;;;4423738;32;20931;-79
2023/06/10 05:45:48;;;;;;;0.32;0.32;;;17.80;99.90;;;;;;4422920;32;20189;-78
2023/06/10 05:48:14;;;;;;;1.00;0.75;;;17.90;99.90;;;;;;4420969;32;21751;-78
2023/06/10 05:50:42;;;;;;;0.93;0.90;;;17.90;99.90;;;;;;4423119;32;20093;-80
2023/06/10 05:53:14;;;;;;;2.03;0.98;;;18.00;99.90;;;;;;4424903;32;20500;-78
2023/06/10 05:55:42;;;;;;;0.65;0.62;;;18.10;99.90;;;;;;4426171;32;20065;-81
2023/06/10 05:58:07;;;;;;;0.52;0.52;;;18.20;99.90;;;;;;4424744;32;20654;-77
2023/06/10 06:00:33;;;;;;;2.83;0.70;;;18.40;99.90;;;;;;4425519;32;20089;-79
2023/06/10 06:02:58;;;;;;;0.30;0.30;;;18.50;99.90;;;;;;4427441;32;20200;-80
2023/06/10 06:05:24;;;;;;;1.98;0.40;;;18.70;99.90;;;;;;4423989;32;20078;-80
2023/06/10 06:07:50;;;;;;;0.50;0.50;;;18.80;99.90;;;;;;4421535;32;20936;-79
2023/06/10 06:10:17;;;;;;;0.73;0.60;;;19.00;99.90;;;;;;4422250;32;20088;-80
2023/06/10 06:12:43;;;;;;;9.85;0.80;;;19.10;99.90;;;;;;4423167;32;20138;-78
2023/06/10 06:15:10;;;;;;;1.60;0.40;;;19.30;99.90;;;;;;4423758;32;20132;-80
2023/06/10 06:17:35;;;;;;;0.45;0.45;;;19.20;99.90;;;;;;4426569;32;20109;-80
2023/06/10 06:20:02;;;;;;;0.30;0.30;;;19.20;99.90;;;;;;4423760;32;20086;-80
2023/06/10 06:22:27;;;;;;;0.47;0.47;;;19.20;99.90;;;;;;4423420;32;20101;-80
2023/06/10 06:24:53;;;;;;;0.55;0.55;;;19.30;99.90;;;;;;4424976;32;20074;-80
2023/06/10 06:27:18;;;;;;;0.50;0.50;;;19.30;99.90;;;;;;4422665;32;20090;-80
2023/06/10 06:29:44;;;;;;;0.45;0.40;;;19.40;99.90;;;;;;4421549;32;20589;-79
2023/06/10 06:32:09;;;;;;;11.07;1.05;;;19.50;99.90;;;;;;4422976;32;20129;-78
2023/06/10 06:34:35;;;;;;;0.32;0.32;;;19.50;99.90;;;;;;4421813;32;20111;-79
2023/06/10 06:37:00;;;;;;;4.15;0.85;;;19.70;99.90;;;;;;4422310;32;20461;-79
2023/06/10 06:39:26;;;;;;;0.65;0.65;;;19.70;99.90;;;;;;4422074;32;20109;-79
2023/06/10 06:41:51;;;;;;;3.80;1.87;;;19.70;99.90;;;;;;4422065;32;20077;-79
2023/06/10 06:44:17;;;;;;;0.77;0.77;;;19.70;99.90;;;;;;4420580;32;20069;-78
2023/06/10 06:46:42;;;;;;;1.02;0.37;;;19.80;99.90;;;;;;4421151;32;20073;-78
2023/06/10 06:49:07;;;;;;;14.95;1.20;;;19.90;99.90;;;;;;4418869;32;20081;-77
2023/06/10 06:51:33;;;;;;;9.05;0.93;;;20.00;99.90;;;;;;4417745;32;20196;-78
2023/06/10 06:53:58;;;;;;;0.50;0.50;;;20.10;99.90;;;;;;4417755;32;20094;-80
2023/06/10 06:56:24;;;;;;;2.15;0.57;;;20.10;99.90;;;;;;4419633;32;20407;-79
2023/06/10 06:58:50;;;;;;;0.88;0.88;;;20.20;99.90;;;;;;4420488;32;20438;-80
2023/06/10 07:01:15;;;;;;;1.65;1.30;;;20.30;99.90;;;;;;4421135;32;20101;-81
2023/06/10 07:03:41;;;;;;;0.60;0.60;;;20.40;99.90;;;;;;4419710;32;20110;-79
2023/06/10 07:06:07;;;;;;;2.62;0.45;;;20.50;99.90;;;;;;4419198;32;20105;-78
2023/06/10 07:08:32;;;;;;;0.77;0.77;;;20.70;99.90;;;;;;4417952;32;20086;-79
2023/06/10 07:10:58;;;;;;;1.37;1.05;;;20.90;99.90;;;;;;4420682;32;20065;-81
2023/06/10 07:13:23;;;;;;;0.47;0.40;;;20.90;99.90;;;;;;4420776;32;20627;-81
2023/06/10 07:15:49;;;;;;;0.50;0.50;;;21.00;99.90;;;;;;4420552;32;20090;-78
2023/06/10 07:18:16;;;;;;;2.25;1.10;;;21.10;99.90;;;;;;4420622;32;20158;-79
2023/06/10 07:20:42;;;;;;;0.40;0.40;;;21.30;99.90;;;;;;4421458;32;20076;-78
2023/06/10 07:23:07;;;;;;;6.75;0.85;;;21.50;99.90;;;;;;4423097;32;20106;-79
2023/06/10 07:25:33;;;;;;;0.70;0.70;;;21.60;99.90;;;;;;4421390;32;20566;-78
2023/06/10 07:27:58;;;;;;;0.50;0.50;;;21.70;99.90;;;;;;4421373;32;20094;-79
2023/06/10 07:30:23;;;;;;;0.55;0.55;;;21.80;99.90;;;;;;4417698;32;20081;-81
2023/06/10 07:32:51;;;;;;;0.50;0.50;;;22.00;99.90;;;;;;4420701;32;20123;-79
2023/06/10 07:35:16;;;;;;;1.20;0.98;;;22.10;99.90;;;;;;4422301;32;20116;-79
2023/06/10 07:37:42;;;;;;;2.25;1.05;;;22.20;99.90;;;;;;4420927;32;20154;-79
2023/06/10 07:40:08;;;;;;;2.67;0.60;;;22.20;99.90;;;;;;4419572;32;20552;-80
2023/06/10 07:42:35;;;;;;;4.25;1.58;;;22.40;99.90;;;;;;4420340;32;20101;-80
2023/06/10 07:45:02;;;;;;;0.70;0.52;;;22.40;99.90;;;;;;4421381;32;20066;-80
2023/06/10 07:47:27;;;;;;;0.77;0.55;;;22.60;99.90;;;;;;4422883;32;20073;-80
2023/06/10 07:49:53;;;;;;;0.52;0.50;;;22.70;99.90;;;;;;4420143;32;20085;-78
2023/06/10 07:52:18;;;;;;;1.65;1.23;;;22.90;99.90;;;;;;4419917;32;20085;-78
2023/06/10 07:54:44;;;;;;;2.92;1.17;;;23.10;99.90;;;;;;4422037;32;20265;-80
2023/06/10 07:57:09;;;;;;;4.90;1.10;;;23.20;99.90;;;;;;4420352;32;20094;-79
2023/06/10 07:59:35;;;;;;;0.40;0.40;;;23.30;99.90;;;;;;4423598;32;20128;-78
2023/06/10 08:02:00;;;;;;;0.68;0.68;;;23.40;99.90;;;;;;4421002;32;20101;-80
2023/06/10 08:04:26;;;;;;;2.75;0.80;;;23.50;99.90;;;;;;4420358;32;20109;-80
2023/06/10 08:06:51;;;;;;;0.50;0.50;;;23.60;99.90;;;;;;4421903;32;21030;-80
2023/06/10 08:09:18;;;;;;;2.40;0.65;;;23.70;99.90;;;;;;4422883;32;20093;-80
2023/06/10 08:11:44;;;;;;;1.35;0.95;;;24.00;99.90;;;;;;4422932;32;20065;-79
2023/06/10 08:14:09;;;;;;;0.85;0.57;;;24.10;99.90;;;;;;4428429;32;20412;-79
2023/06/10 08:16:35;;;;;;;0.40;0.40;;;24.30;99.90;;;;;;4420847;32;20105;-81
2023/06/10 08:19:00;;;;;;;19.50;0.90;;;24.30;99.90;;;;;;4423128;32;20084;-79
2023/06/10 08:21:28;;;;;;;0.98;0.90;;;24.10;99.90;;;;;;4421991;32;20113;-78
2023/06/10 08:23:54;;;;;;;0.37;0.37;;;24.00;99.90;;;;;;4428907;32;20106;-81
2023/06/10 08:26:19;;;;;;;1.33;0.98;;;23.80;99.90;;;;;;4426986;32;20066;-80
2023/06/10 08:28:45;;;;;;;0.43;0.43;;;24.00;99.90;;;;;;4421276;32;20115;-80
2023/06/10 08:31:10;;;;;;;2.05;0.98;;;23.90;99.90;;;;;;4424417;32;20386;-79
2023/06/10 08:33:36;;;;;;;0.65;0.65;;;23.90;99.90;;;;;;4422354;32;21257;-79
2023/06/10 08:36:02;;;;;;;1.00;0.77;;;24.20;99.90;;;;;;4426643;32;20497;-79
2023/06/10 08:38:27;;;;;;;0.68;0.68;;;24.40;99.90;;;;;;4419658;32;20187;-79
2023/06/10 08:40:58;;;;;;;0.50;0.50;;;24.50;99.90;;;;;;4420334;32;20124;-79
2023/06/10 08:43:33;;;;;;;0.68;0.55;;;24.70;99.90;;;;;;4419786;32;20105;-79
2023/06/10 08:46:01;;;;;;;0.50;0.50;;;24.90;99.90;;;;;;4419831;32;20073;-80
2023/06/10 08:48:29;;;;;;;0.60;0.60;;;25.00;99.90;;;;;;4422112;32;20097;-81
2023/06/10 08:50:57;;;;;;;0.30;0.30;;;25.20;99.90;;;;;;4422925;32;20069;-78
2023/06/10 08:53:24;;;;;;;0.40;0.40;;;24.90;99.90;;;;;;4424095;32;20061;-78
2023/06/10 08:55:51;;;;;;;1.05;0.60;;;24.90;99.90;;;;;;4420916;32;20465;-80
2023/06/10 08:58:18;;;;;;;0.90;0.73;;;25.10;99.90;;;;;;4421129;32;20185;-76
2023/06/10 09:00:43;;;;;;;0.62;0.62;;;25.30;99.90;;;;;;4424666;32;20085;-79
2023/06/10 09:03:09;;;;;;;0.35;0.35;;;25.30;99.90;;;;;;4422654;32;20073;-78
2023/06/10 09:05:36;;;;;;;3.85;0.98;;;25.20;99.80;;;;;;4423331;32;20097;-78
2023/06/10 09:08:02;;;;;;;5.60;2.25;;;25.40;99.70;;;;;;4423669;32;20084;-79
2023/06/10 09:10:28;;;;;;;3.70;0.93;;;25.50;99.50;;;;;;4423556;32;20411;-76
2023/06/10 09:12:53;;;;;;;0.60;0.60;;;25.50;99.20;;;;;;4417344;32;20106;-77
2023/06/10 09:15:19;;;;;;;3.15;1.02;;;25.50;99.20;;;;;;4424178;32;20073;-77
2023/06/10 09:17:45;;;;;;;4.43;1.35;;;25.60;99.20;;;;;;4424775;32;20077;-78
2023/06/10 09:20:11;;;;;;;0.60;0.52;;;25.90;99.10;;;;;;4422415;32;20081;-80
2023/06/10 09:22:37;;;;;;;0.85;0.85;;;26.20;98.30;;;;;;4421880;32;20097;-79
2023/06/10 09:25:08;;;;;;;0.62;0.57;;;26.30;97.00;;;;;;4420132;32;20089;-80
2023/06/10 09:27:54;;;;;;;1.33;1.17;;;26.30;96.60;;;;;;4421828;32;20110;-80
2023/06/10 09:30:28;;;;;;;0.30;0.30;;;26.40;97.20;;;;;;4422682;32;20079;-79
2023/06/10 09:32:56;;;;;;;0.43;0.43;;;26.60;95.80;;;;;;4422825;32;20134;-78
2023/06/10 09:35:22;;;;;;;0.40;0.40;;;26.40;95.70;;;;;;4423706;32;20112;-80
2023/06/10 09:37:53;;;;;;;3.97;0.40;;;26.40;96.00;;;;;;4424019;32;20492;-80
2023/06/10 09:40:19;;;;;;;0.47;0.43;;;26.50;96.30;;;;;;4425779;32;20067;-79
2023/06/10 09:42:45;;;;;;;5.82;0.50;;;26.80;96.30;;;;;;4424191;32;20597;-77
2023/06/10 09:45:10;;;;;;;1.83;0.77;;;27.00;96.00;;;;;;4425370;32;20101;-80
2023/06/10 09:47:36;;;;;;;3.95;1.25;;;27.20;95.90;;;;;;4422683;32;20132;-81
2023/06/10 09:50:03;;;;;;;2.40;0.77;;;27.40;95.40;;;;;;4423236;32;20427;-79
2023/06/10 09:52:29;;;;;;;0.35;0.35;;;27.50;95.60;;;;;;4423779;32;20083;-81
2023/06/10 09:55:00;;;;;;;0.90;0.70;;;27.60;94.80;;;;;;4424475;32;20508;-77
2023/06/10 09:57:25;;;;;;;2.08;1.00;;;27.60;95.30;;;;;;4423113;32;20512;-79
2023/06/10 09:59:55;;;;;;;0.98;0.75;;;27.70;94.50;;;;;;4421952;32;20074;-79
2023/06/10 10:02:20;;;;;;;3.22;1.48;;;27.60;94.90;;;;;;4423098;32;20337;-80
2023/06/10 10:04:46;;;;;;;0.50;0.50;;;27.40;94.80;;;;;;4421612;32;20092;-78
2023/06/10 10:07:12;;;;;;;1.35;1.10;;;27.10;94.70;;;;;;4424256;32;20109;-80
2023/06/10 10:09:39;;;;;;;1.40;1.15;;;27.00;95.50;;;;;;4422766;32;20113;-79
2023/06/10 10:12:11;;;;;;;0.75;0.60;;;27.00;95.10;;;;;;4420240;32;20593;-80
2023/06/10 10:14:38;;;;;;;0.93;0.52;;;26.70;95.10;;;;;;4423536;32;20196;-81
2023/06/10 10:17:10;;;;;;;0.57;0.43;;;26.60;95.20;;;;;;4422798;32;20149;-80
2023/06/10 10:19:44;;;;;;;1.10;0.90;;;26.60;95.30;;;;;;4422164;32;20136;-79
2023/06/10 10:22:15;;;;;;;0.20;0.20;;;26.40;95.30;;;;;;4425617;32;20093;-79
2023/06/10 10:24:50;;;;;;;0.30;0.30;;;26.30;95.30;;;;;;4423542;32;20262;-81
2023/06/10 10:27:28;;;;;;;1.50;0.40;;;26.20;95.60;;;;;;4423557;32;20101;-78
2023/06/10 10:29:55;;;;;;;0.37;0.37;;;26.10;95.40;;;;;;4422023;32;21190;-79
2023/06/10 10:32:43;;;;;;;0.50;0.50;;;26.00;94.90;;;;;;4421444;32;20093;-75
2023/06/10 10:35:16;;;;;;;0.35;0.35;;;26.00;95.20;;;;;;4410499;32;20090;-79
2023/06/10 10:37:42;;;;;;;0.57;0.40;;;26.00;95.00;;;;;;4422080;32;20082;-78
2023/06/10 10:40:08;;;;;;;0.40;0.40;;;26.00;94.90;;;;;;4419463;32;20085;-79
2023/06/10 10:42:35;;;;;;;4.20;0.57;;;26.00;94.90;;;;;;4424409;32;20070;-78
2023/06/10 10:45:01;;;;;;;0.73;0.73;;;26.00;94.80;;;;;;4423587;32;20721;-77
2023/06/10 10:47:29;;;;;;;0.40;0.40;;;26.00;94.10;;;;;;4425977;32;20089;-77
2023/06/10 10:49:58;;;;;;;0.62;0.55;;;26.10;93.90;;;;;;4425994;32;20438;-79
2023/06/10 10:52:24;;;;;;;0.60;0.60;;;26.10;94.30;;;;;;4425274;32;20521;-79
2023/06/10 10:54:53;;;;;;;0.77;0.60;;;26.00;93.80;;;;;;4426838;32;20078;-79
2023/06/10 10:57:20;;;;;;;0.65;0.65;;;26.10;93.70;;;;;;4425349;32;20113;-78
2023/06/10 10:59:55;;;;;;;0.80;0.75;;;26.20;93.30;;;;;;4423507;32;20110;-79
2023/06/10 11:02:43;;;;;;;0.28;0.28;;;26.30;92.60;;;;;;4422076;32;20089;-76
2023/06/10 11:05:10;;;;;;;0.35;0.35;;;26.50;90.70;;;;;;4412090;32;20077;-79
2023/06/10 11:07:36;;;;;;;0.35;0.30;;;26.60;90.40;;;;;;4424908;32;20069;-78
2023/06/10 11:10:11;;;;;;;2.62;0.60;;;27.00;90.00;;;;;;4426168;32;20560;-79
2023/06/10 11:12:53;;;;;;;0.20;0.20;;;27.30;88.80;;;;;;4425431;32;20078;-81
2023/06/10 11:15:20;;;;;;;0.55;0.45;;;27.50;87.20;;;;;;4422867;32;20091;-80
2023/06/10 11:18:06;;;;;;;0.20;0.20;;;28.00;86.90;;;;;;4423902;32;20143;-79
2023/06/10 11:20:54;;;;;;;1.67;0.90;;;28.60;86.40;;;;;;4411276;32;20105;-80
2023/06/10 11:23:30;;;;;;;0.28;0.28;;;29.00;84.70;;;;;;4412458;32;20117;-80
2023/06/10 11:26:17;;;;;;;6.20;1.52;;;28.80;84.90;;;;;;4411193;32;20089;-79
2023/06/10 11:28:48;;;;;;;0.30;0.30;;;28.80;85.70;;;;;;4411540;32;20065;-79
2023/06/10 11:31:23;;;;;;;0.43;0.43;;;28.50;85.20;;;;;;4423906;32;20142;-80
2023/06/10 11:33:54;;;;;;;0.37;0.37;;;28.40;85.80;;;;;;4422013;32;20148;-80
2023/06/10 11:36:19;;;;;;;3.30;0.85;;;28.20;85.00;;;;;;4420702;32;20125;-79
2023/06/10 11:38:45;;;;;;;0.55;0.55;;;28.20;86.10;;;;;;4421880;32;20154;-79
2023/06/10 11:41:13;;;;;;;5.05;1.17;;;28.20;86.00;;;;;;4427259;32;20074;-79
2023/06/10 11:43:46;;;;;;;0.30;0.30;;;28.30;86.20;;;;;;4424692;32;20065;-80
2023/06/10 11:46:13;;;;;;;0.60;0.40;;;28.90;85.30;;;;;;4419139;32;88391;-80
2023/06/10 11:48:38;;;;;;;0.25;0.22;;;29.50;82.80;;;;;;4423330;32;20481;-79
2023/06/10 11:51:07;;;;;;;0.80;0.43;;;30.10;81.00;;;;;;4420496;32;20138;-80
2023/06/10 11:53:33;;;;;;;0.20;0.20;;;30.40;79.80;;;;;;4420674;32;20077;-77
2023/06/10 11:55:59;;;;;;;1.08;0.52;;;31.20;79.20;;;;;;4419044;32;20864;-77
2023/06/10 11:58:25;;;;;;;0.35;0.35;;;31.50;77.70;;;;;;4421699;32;20372;-79
2023/06/10 12:00:53;;;;;;;0.20;0.20;;;32.00;75.60;;;;;;4419575;32;20086;-79
2023/06/10 12:03:20;;;;;;;0.30;0.30;;;32.40;75.00;;;;;;4422187;32;20053;-78
2023/06/10 12:05:57;;;;;;;1.17;0.85;;;32.50;73.50;;;;;;4421340;32;20098;-78
2023/06/10 12:08:23;;;;;;;0.45;0.45;;;32.50;73.50;;;;;;4421036;32;20090;-81
2023/06/10 12:10:48;;;;;;;0.20;0.20;;;32.70;72.30;;;;;;4422319;32;20526;-78
2023/06/10 12:13:14;;;;;;;0.30;0.30;;;33.10;71.90;;;;;;4421482;32;20372;-80
2023/06/10 12:15:39;;;;;;;0.45;0.45;;;33.30;70.70;;;;;;4423382;32;20595;-79
2023/06/10 12:18:06;;;;;;;0.65;0.62;;;33.30;70.60;;;;;;4421552;32;20086;-80
2023/06/10 12:20:33;;;;;;;0.35;0.35;;;33.60;70.80;;;;;;4421232;32;20082;-80
2023/06/10 12:23:08;;;;;;;1.35;0.85;;;33.70;69.20;;;;;;4420089;32;20101;-79
2023/06/10 12:25:33;;;;;;;1.17;0.85;;;33.70;68.20;;;;;;4423368;32;20831;-77
2023/06/10 12:27:59;;;;;;;2.40;1.17;;;33.70;68.50;;;;;;4422378;32;21178;-80
2023/06/10 12:30:27;;;;;;;0.45;0.45;;;33.50;68.20;;;;;;4425556;32;20091;-78
2023/06/10 12:32:53;;;;;;;0.40;0.40;;;33.50;69.80;;;;;;4420483;32;20069;-79
2023/06/10 12:35:21;;;;;;;0.60;0.60;;;33.80;68.20;;;;;;4419765;32;20173;-75
2023/06/10 12:37:57;;;;;;;0.22;0.22;;;33.70;69.00;;;;;;4422542;32;20117;-79
2023/06/10 12:40:27;;;;;;;0.77;0.55;;;33.80;66.70;;;;;;4420128;32;20358;-78
2023/06/10 12:42:54;;;;;;;8.73;0.98;;;33.50;67.60;;;;;;4422099;32;20097;-78
2023/06/10 12:45:39;;;;;;;0.22;0.22;;;33.70;67.40;;;;;;4420565;32;20089;-78